Terminal Aerodrome Forecast
Issued by NWS

Home | Current Version | Previous Version | Text Only | Print | Product List | Glossary On
Versions: 1 2 3 4 5 6 7 8 9 10 11 12 13 14 15 16 17 18 19 20 21 22
000
FTUS46 KMFR 310918 AAA
TAFOTH
TAF AMD
KOTH 310918Z 3109/0106 36003KT P6SM BKN150
     FM311100 VRB03KT 1/2SM FG OVC002
     FM311600 34005KT 3SM BR SCT002
     FM311900 35013G23KT P6SM SKC=

USA.gov is the U.S. government's official web portal to all federal, state and local government web resources and services.